createdAt,value
2022-10-31T00:03:02.170Z,23.43
2022-10-31T00:08:05.167Z,25.03
2022-10-31T00:13:08.507Z,22.93
2022-10-31T00:18:12.950Z,22.37
2022-10-31T00:23:15.704Z,22.33
2022-10-31T00:33:23.466Z,21.97
2022-10-31T00:38:26.198Z,23.33
2022-10-31T00:43:29.231Z,20.83
2022-10-31T00:48:33.577Z,21.13
2022-10-31T00:53:36.696Z,20.17
2022-10-31T00:58:39.478Z,21.70
2022-10-31T01:03:43.623Z,20.77
2022-10-31T01:08:48.666Z,20.30
2022-10-31T01:13:53.913Z,19.93
2022-10-31T01:18:58.118Z,21.33
2022-10-31T01:24:02.954Z,20.70
2022-10-31T01:29:08.275Z,20.07
2022-10-31T01:34:15.492Z,20.83
2022-10-31T01:39:18.905Z,20.17
2022-10-31T01:44:51.732Z,20.20
2022-10-31T01:49:58.642Z,19.90
2022-10-31T01:55:05.320Z,19.63
2022-10-31T02:00:11.673Z,19.57
2022-10-31T02:05:19.202Z,20.73
2022-10-31T02:10:24.378Z,20.00
2022-10-31T02:15:27.502Z,19.17
2022-10-31T02:20:36.471Z,19.93
2022-10-31T02:26:00.355Z,20.93
2022-10-31T02:31:15.939Z,20.27
2022-10-31T02:36:26.236Z,19.87
2022-10-31T02:41:36.847Z,19.50
2022-10-31T02:46:50.563Z,19.23
2022-10-31T02:51:53.472Z,19.00
2022-10-31T02:57:01.152Z,18.87
2022-10-31T03:02:18.215Z,18.37
2022-10-31T03:07:27.756Z,18.43
2022-10-31T03:12:36.652Z,18.70
2022-10-31T03:17:47.917Z,17.63
2022-10-31T03:22:50.703Z,17.93
2022-10-31T03:27:54.210Z,18.00
2022-10-31T03:33:02.172Z,18.37
2022-10-31T03:38:07.807Z,17.07
2022-10-31T03:43:16.871Z,17.57
2022-10-31T03:48:22.626Z,16.70
2022-10-31T03:53:28.566Z,16.87
2022-10-31T03:58:38.256Z,16.33
2022-10-31T04:03:43.397Z,17.10
2022-10-31T04:08:50.603Z,17.27
2022-10-31T04:13:55.090Z,16.63
2022-10-31T04:18:59.366Z,16.90
2022-10-31T04:24:02.162Z,16.13
2022-10-31T04:29:04.985Z,16.43
2022-10-31T04:34:09.256Z,16.67
2022-10-31T04:39:11.987Z,15.83
2022-10-31T04:44:14.770Z,16.27
2022-10-31T04:49:18.815Z,16.43
2022-10-31T04:54:21.601Z,15.53
2022-10-31T04:59:24.600Z,16.07
2022-10-31T05:04:28.800Z,15.50
2022-10-31T05:09:31.725Z,15.80
2022-10-31T05:14:34.431Z,15.57
2022-10-31T05:19:38.543Z,17.23
2022-10-31T05:24:41.335Z,16.50
2022-10-31T05:29:44.111Z,15.37
2022-10-31T05:34:48.276Z,15.13
2022-10-31T05:39:50.995Z,15.27
2022-10-31T05:44:53.744Z,14.90
2022-10-31T05:49:57.835Z,15.97
2022-10-31T05:55:00.625Z,14.17
2022-10-31T06:00:03.648Z,14.47
2022-10-31T06:05:08.419Z,14.13
2022-10-31T06:10:11.664Z,13.57
2022-10-31T06:15:16.136Z,13.93
2022-10-31T06:20:22.777Z,13.07
2022-10-31T06:25:25.688Z,12.93
2022-10-31T06:30:28.564Z,12.73
2022-10-31T06:35:33.152Z,12.90
2022-10-31T06:40:35.894Z,13.20
2022-10-31T06:45:38.829Z,14.13
2022-10-31T06:50:42.968Z,14.90
2022-10-31T06:55:45.745Z,14.87
2022-10-31T07:00:48.643Z,13.60
2022-10-31T07:05:52.761Z,12.80
2022-10-31T07:10:57.129Z,11.97
2022-10-31T07:16:03.118Z,10.87
2022-10-31T07:21:07.697Z,9.17
2022-10-31T07:26:12.022Z,8.20
2022-10-31T07:31:14.768Z,8.35
2022-10-31T07:36:18.990Z,9.38
2022-10-31T07:41:22.658Z,7.72
2022-10-31T07:46:25.487Z,6.25
2022-10-31T07:51:29.588Z,6.50
2022-10-31T07:56:32.342Z,5.35
2022-10-31T08:01:35.182Z,5.80
2022-10-31T08:06:39.265Z,7.03
2022-10-31T08:11:42.007Z,5.57
2022-10-31T08:16:44.758Z,6.68
2022-10-31T08:21:52.011Z,5.93
2022-10-31T08:26:54.838Z,5.45
2022-10-31T08:31:59.846Z,5.75
2022-10-31T08:37:03.998Z,5.30
2022-10-31T08:42:06.793Z,6.15
2022-10-31T08:47:09.607Z,5.45
2022-10-31T08:52:15.707Z,4.70
2022-10-31T08:57:18.458Z,5.10
2022-10-31T09:02:21.253Z,5.13
2022-10-31T09:07:25.410Z,5.65
2022-10-31T09:12:28.138Z,5.28
2022-10-31T09:17:31.017Z,5.00
2022-10-31T09:22:35.156Z,5.47
2022-10-31T09:27:37.955Z,4.63
2022-10-31T09:32:40.697Z,4.40
2022-10-31T09:37:44.733Z,5.32
2022-10-31T09:42:56.812Z,4.78
2022-10-31T09:48:22.689Z,4.43
2022-10-31T09:53:31.570Z,4.32
2022-10-31T09:58:39.595Z,4.78
2022-10-31T10:03:47.320Z,4.32
2022-10-31T10:08:51.743Z,4.28
2022-10-31T10:14:06.556Z,4.30
2022-10-31T10:19:21.586Z,3.80
2022-10-31T10:24:36.515Z,3.90
2022-10-31T10:29:45.172Z,4.30
2022-10-31T10:34:52.001Z,4.07
2022-10-31T10:40:00.880Z,4.10
2022-10-31T10:45:34.172Z,8.48
2022-10-31T10:50:41.459Z,3.83
2022-10-31T10:55:52.976Z,3.75
2022-10-31T11:00:57.474Z,4.13
2022-10-31T11:06:02.092Z,4.70
2022-10-31T11:11:15.790Z,4.18
2022-10-31T11:16:34.475Z,6.15
2022-10-31T11:21:39.617Z,6.22
2022-10-31T11:26:45.660Z,5.97
2022-10-31T11:31:49.381Z,7.20
2022-10-31T11:36:52.241Z,6.00
2022-10-31T11:41:57.147Z,6.22
2022-10-31T11:47:02.797Z,7.32
2022-10-31T11:52:08.618Z,6.80
2022-10-31T11:57:26.435Z,6.32
2022-10-31T12:02:29.702Z,6.50
2022-10-31T12:07:32.956Z,7.10
2022-10-31T12:12:55.779Z,5.78
2022-10-31T12:18:20.105Z,6.07
2022-10-31T12:23:31.113Z,5.68
2022-10-31T12:28:55.137Z,6.10
2022-10-31T12:34:12.601Z,4.63
2022-10-31T12:39:29.910Z,4.78
2022-10-31T12:45:06.814Z,4.90
2022-10-31T12:50:30.211Z,5.90
2022-10-31T12:55:47.797Z,4.50
2022-10-31T13:01:02.505Z,4.53
2022-10-31T13:06:10.407Z,4.38
2022-10-31T13:11:17.497Z,4.00
2022-10-31T13:16:27.591Z,3.50
2022-10-31T13:21:36.228Z,3.28
2022-10-31T13:26:42.755Z,3.58
2022-10-31T13:31:46.920Z,3.97
2022-10-31T13:36:57.897Z,4.80
2022-10-31T13:42:06.322Z,4.00
2022-10-31T13:47:26.005Z,4.00
2022-10-31T13:52:30.086Z,3.97
2022-10-31T13:57:36.727Z,4.22
2022-10-31T14:02:48.668Z,4.45
2022-10-31T14:07:53.372Z,4.50
2022-10-31T14:13:05.458Z,3.88
2022-10-31T14:18:23.548Z,4.20
2022-10-31T14:23:41.010Z,4.30
2022-10-31T14:28:43.845Z,4.53
2022-10-31T14:33:48.275Z,5.07
2022-10-31T14:38:59.024Z,4.35
2022-10-31T14:44:39.742Z,4.63
2022-10-31T14:50:09.337Z,4.82
2022-10-31T14:55:14.952Z,4.72
2022-10-31T15:00:20.573Z,4.93
2022-10-31T15:05:25.228Z,5.32
2022-10-31T15:10:32.973Z,4.10
2022-10-31T15:15:36.145Z,4.40
2022-10-31T15:20:45.227Z,5.05
2022-10-31T15:25:48.509Z,5.05
2022-10-31T15:30:53.586Z,5.07
2022-10-31T15:35:59.929Z,6.05
2022-10-31T15:41:05.193Z,6.55
2022-10-31T15:46:11.092Z,7.97
2022-10-31T15:51:15.733Z,8.25
2022-10-31T15:56:23.628Z,8.95
2022-10-31T16:01:28.501Z,8.32
2022-10-31T16:06:33.742Z,8.85
2022-10-31T16:11:38.976Z,7.65
2022-10-31T16:16:43.999Z,9.75
2022-10-31T16:21:50.094Z,10.57
2022-10-31T16:26:54.825Z,16.55
2022-10-31T16:31:57.644Z,30.67
2022-10-31T16:37:04.008Z,70.45
2022-10-31T16:42:06.945Z,21.67
2022-10-31T16:47:14.250Z,28.65
2022-10-31T16:52:18.600Z,18.30
2022-10-31T16:57:31.554Z,21.75
2022-10-31T17:02:35.167Z,16.73
2022-10-31T17:07:39.417Z,17.67
2022-10-31T17:12:45.423Z,21.80
2022-10-31T17:17:48.171Z,24.83
2022-10-31T17:22:52.388Z,54.65
2022-10-31T17:27:55.274Z,34.97
2022-10-31T17:32:58.502Z,32.97
2022-10-31T17:38:02.772Z,33.13
2022-10-31T17:43:05.926Z,24.40
2022-10-31T17:48:10.374Z,27.80
2022-10-31T17:53:14.551Z,26.77
2022-10-31T17:58:17.334Z,23.48
2022-10-31T18:03:20.105Z,32.47
2022-10-31T18:08:27.443Z,25.90
2022-10-31T18:13:30.216Z,28.00
2022-10-31T18:18:32.974Z,20.75
2022-10-31T18:23:37.120Z,20.20
2022-10-31T18:28:39.917Z,21.25
2022-10-31T18:33:43.293Z,25.30
2022-10-31T18:38:47.444Z,23.50
2022-10-31T18:43:50.209Z,23.38
2022-10-31T18:48:53.149Z,23.33
2022-10-31T18:53:59.825Z,26.00
2022-10-31T18:59:03.150Z,24.98
2022-10-31T19:04:06.223Z,21.42
2022-10-31T19:09:10.404Z,18.35
2022-10-31T19:14:14.926Z,17.17
2022-10-31T19:19:19.010Z,16.98
2022-10-31T19:24:23.108Z,17.77
2022-10-31T19:29:25.957Z,17.05
2022-10-31T19:34:28.701Z,17.25
2022-10-31T19:39:32.878Z,17.85
2022-10-31T19:44:35.671Z,18.90
2022-10-31T19:49:38.488Z,21.60
2022-10-31T19:54:42.624Z,25.73
2022-10-31T19:59:48.400Z,24.50
2022-10-31T20:04:51.275Z,17.67
2022-10-31T20:09:56.266Z,17.55
2022-10-31T20:14:59.116Z,17.70
2022-10-31T20:20:07.070Z,17.13
2022-10-31T20:25:11.378Z,16.08
2022-10-31T20:30:15.146Z,15.02
2022-10-31T20:35:20.655Z,14.88
2022-10-31T20:40:27.559Z,17.63
2022-10-31T20:45:30.350Z,16.20
2022-10-31T20:50:33.097Z,15.85
2022-10-31T20:55:37.254Z,16.67
2022-10-31T21:00:40.305Z,16.23
2022-10-31T21:05:43.106Z,16.00
2022-10-31T21:10:47.291Z,15.68
2022-10-31T21:15:59.585Z,14.75
2022-10-31T21:27:51.591Z,14.48
2022-10-31T21:33:01.331Z,16.65
2022-10-31T21:38:44.250Z,18.48
2022-10-31T21:44:33.540Z,15.55
2022-10-31T21:49:48.541Z,15.32
2022-10-31T21:55:06.759Z,20.42
2022-10-31T22:06:52.187Z,16.05
2022-10-31T22:12:13.094Z,16.77
2022-10-31T22:17:21.457Z,16.98
2022-10-31T22:22:37.989Z,18.10
2022-10-31T22:27:45.449Z,26.20
2022-10-31T22:32:54.628Z,18.40
2022-10-31T22:43:26.474Z,19.02
2022-10-31T22:48:49.501Z,28.63
2022-10-31T22:54:14.902Z,24.25
2022-10-31T22:59:27.439Z,18.52
2022-10-31T23:04:36.123Z,18.52
2022-10-31T23:09:47.596Z,19.27
2022-10-31T23:14:59.755Z,19.60
2022-10-31T23:20:07.041Z,20.40
2022-10-31T23:25:36.498Z,22.55
2022-10-31T23:30:42.834Z,23.50
2022-10-31T23:35:54.362Z,25.13
2022-10-31T23:41:01.499Z,26.00
2022-10-31T23:46:12.506Z,25.88
2022-10-31T23:51:22.894Z,26.25
2022-10-31T23:56:44.378Z,27.70
